Time;durP1;ratioP1;P1;durP2;ratioP2;P2;SDS_P1;SDS_P2;PMS_P1;PMS_P2;Temp;Humidity;BMP_temperature;BMP_pressure;BME280_temperature;BME280_humidity;BME280_pressure;Samples;Min_cycle;Max_cycle;Signal;HPM_P1;HPM_P2
2023/05/23 00:02:29;;;;;;;2.58;1.40;;;19.40;44.70;;;;;;5000445;28;20061;-81
2023/05/23 00:04:57;;;;;;;1.70;1.05;;;19.40;44.80;;;;;;4992991;28;20045;-80
2023/05/23 00:07:23;;;;;;;3.28;1.15;;;19.30;44.60;;;;;;5001521;28;20089;-83
2023/05/23 00:09:50;;;;;;;3.65;1.50;;;19.20;44.50;;;;;;4998993;28;20038;-79
2023/05/23 00:12:19;;;;;;;3.55;1.52;;;19.20;44.60;;;;;;4997619;28;20180;-79
2023/05/23 00:14:45;;;;;;;2.38;1.52;;;19.20;44.70;;;;;;5000472;28;20070;-79
2023/05/23 00:17:11;;;;;;;2.67;1.40;;;19.10;44.60;;;;;;4992137;28;20072;-80
2023/05/23 00:19:38;;;;;;;3.65;1.60;;;19.10;44.70;;;;;;4988562;28;20061;-79
2023/05/23 00:22:07;;;;;;;4.03;1.50;;;19.00;44.50;;;;;;4995996;28;20111;-79
2023/05/23 00:24:33;;;;;;;1.45;1.10;;;19.00;44.60;;;;;;4992087;28;20107;-78
2023/05/23 00:27:02;;;;;;;4.35;1.77;;;18.90;44.50;;;;;;4994455;28;20158;-80
2023/05/23 00:29:29;;;;;;;4.43;2.00;;;18.90;44.60;;;;;;4997996;28;20478;-79
2023/05/23 00:31:55;;;;;;;4.50;1.85;;;18.80;44.50;;;;;;4997782;28;20298;-79
2023/05/23 00:34:21;;;;;;;2.50;1.40;;;18.80;44.60;;;;;;4994153;28;20053;-78
2023/05/23 00:36:50;;;;;;;2.17;1.33;;;18.70;44.50;;;;;;4999808;28;20209;-79
2023/05/23 00:39:19;;;;;;;2.30;1.38;;;18.70;44.60;;;;;;4996492;28;20045;-79
2023/05/23 00:41:51;;;;;;;4.35;2.33;;;18.70;44.70;;;;;;5001072;28;20300;-79
2023/05/23 00:44:18;;;;;;;3.13;1.60;;;18.70;44.70;;;;;;4982842;28;20026;-79
2023/05/23 00:46:48;;;;;;;3.97;1.35;;;18.60;44.60;;;;;;4981781;28;20050;-80
2023/05/23 00:49:18;;;;;;;4.78;2.47;;;18.60;44.70;;;;;;4997964;28;20437;-80
2023/05/23 00:51:45;;;;;;;4.47;1.75;;;18.50;44.50;;;;;;5001132;28;20049;-80
2023/05/23 00:54:17;;;;;;;4.03;2.15;;;18.50;44.60;;;;;;5004665;28;20037;-80
2023/05/23 00:56:44;;;;;;;3.38;1.90;;;18.40;44.60;;;;;;4995585;28;20509;-81
2023/05/23 00:59:11;;;;;;;3.80;1.60;;;18.40;44.60;;;;;;4998530;28;20053;-80
2023/05/23 01:01:39;;;;;;;3.92;1.70;;;18.40;44.80;;;;;;4998291;28;20049;-81
2023/05/23 01:04:06;;;;;;;3.72;1.50;;;18.30;44.60;;;;;;5014762;28;20477;-81
2023/05/23 01:06:38;;;;;;;4.32;1.92;;;18.30;44.70;;;;;;4997387;28;20098;-82
2023/05/23 01:09:26;;;;;;;4.28;1.83;;;18.20;44.50;;;;;;4996815;28;20046;-81
2023/05/23 01:12:18;;;;;;;4.13;1.65;;;18.20;44.60;;;;;;4994077;28;20572;-79
2023/05/23 01:15:07;;;;;;;3.83;1.65;;;18.20;44.80;;;;;;4991997;28;20050;-80
2023/05/23 01:17:57;;;;;;;2.35;1.50;;;18.10;44.60;;;;;;4993290;28;20037;-79
2023/05/23 01:20:30;;;;;;;5.78;1.83;;;18.00;44.50;;;;;;5004097;28;20425;-79
2023/05/23 01:23:36;;;;;;;2.83;1.38;;;18.00;44.60;;;;;;5000697;28;20235;-78
2023/05/23 01:26:31;;;;;;;3.63;1.38;;;17.90;44.60;;;;;;5001082;28;20160;-81
2023/05/23 01:29:09;;;;;;;3.42;1.45;;;17.90;44.60;;;;;;4994084;28;20040;-79
2023/05/23 01:31:47;;;;;;;5.28;2.47;;;17.80;44.50;;;;;;4993888;28;20127;-78
2023/05/23 01:34:17;;;;;;;5.53;1.70;;;17.80;44.60;;;;;;5003968;28;20037;-78
2023/05/23 01:36:44;;;;;;;4.47;2.10;;;17.70;44.40;;;;;;4998659;28;20149;-78
2023/05/23 01:39:11;;;;;;;4.40;2.10;;;17.80;44.70;;;;;;4999540;28;20108;-78
2023/05/23 01:41:37;;;;;;;4.35;1.40;;;17.70;44.60;;;;;;5002541;28;20129;-80
2023/05/23 01:44:04;;;;;;;2.75;1.75;;;17.70;44.70;;;;;;4997601;28;20038;-78
2023/05/23 01:46:38;;;;;;;3.90;1.48;;;17.70;44.80;;;;;;5000138;28;20053;-78
2023/05/23 01:49:06;;;;;;;3.40;1.45;;;17.60;44.70;;;;;;5022329;28;20501;-77
2023/05/23 01:51:33;;;;;;;4.63;2.00;;;17.60;44.70;;;;;;5003457;28;20032;-81
2023/05/23 01:54:00;;;;;;;4.93;1.70;;;17.60;44.90;;;;;;5003263;28;20034;-81
2023/05/23 01:56:27;;;;;;;2.60;1.70;;;17.50;44.70;;;;;;5002746;28;20160;-81
2023/05/23 01:58:53;;;;;;;3.20;1.60;;;17.50;44.80;;;;;;5001852;28;20054;-79
2023/05/23 02:01:26;;;;;;;;;;;17.50;44.90;;;;;;4999802;28;20121;-80
2023/05/23 02:03:53;;;;;;;5.95;2.53;;;17.40;44.60;;;;;;5005333;28;19913;-80
2023/05/23 02:06:20;;;;;;;3.22;2.05;;;17.40;44.50;;;;;;5008275;28;20069;-80
2023/05/23 02:08:47;;;;;;;4.82;2.15;;;17.40;44.70;;;;;;5005170;28;20037;-80
2023/05/23 02:11:13;;;;;;;6.90;2.42;;;17.30;44.60;;;;;;5003572;28;20026;-83
2023/05/23 02:13:40;;;;;;;4.82;1.95;;;17.20;44.60;;;;;;5000964;28;20026;-82
2023/05/23 02:16:10;;;;;;;6.45;2.38;;;17.20;44.70;;;;;;5002623;28;20489;-80
2023/05/23 02:18:37;;;;;;;2.50;1.60;;;17.20;44.80;;;;;;5003574;28;20034;-79
2023/05/23 02:21:04;;;;;;;3.70;1.60;;;17.20;44.90;;;;;;4998215;28;20549;-81
2023/05/23 02:23:33;;;;;;;2.70;1.77;;;17.10;44.80;;;;;;5003375;28;20050;-82
2023/05/23 02:25:59;;;;;;;2.70;1.95;;;17.10;45.50;;;;;;5003364;28;20542;-79
2023/05/23 02:28:26;;;;;;;5.13;1.60;;;17.10;45.00;;;;;;5004573;28;20246;-80
2023/05/23 02:30:52;;;;;;;4.30;1.85;;;17.00;44.90;;;;;;5002267;28;20481;-79
2023/05/23 02:33:18;;;;;;;4.28;2.03;;;17.00;45.00;;;;;;5006490;28;20041;-79
2023/05/23 02:35:58;;;;;;;3.25;2.10;;;16.90;44.90;;;;;;5004596;28;20030;-79
2023/05/23 02:38:26;;;;;;;6.22;2.88;;;16.90;45.60;;;;;;5000192;28;20421;-80
2023/05/23 02:40:53;;;;;;;5.97;3.28;;;16.90;45.00;;;;;;5012945;28;20600;-78
2023/05/23 02:43:22;;;;;;;3.17;1.77;;;16.90;45.10;;;;;;5012295;28;20060;-80
2023/05/23 02:45:51;;;;;;;2.80;1.42;;;16.80;45.00;;;;;;5008456;28;20042;-82
2023/05/23 02:48:18;;;;;;;4.07;2.33;;;16.80;45.10;;;;;;5005960;28;20184;-80
2023/05/23 02:50:44;;;;;;;2.88;1.80;;;16.80;45.10;;;;;;5022427;28;20045;-79
2023/05/23 02:53:10;;;;;;;3.90;1.67;;;16.70;45.00;;;;;;5008231;28;20037;-80
2023/05/23 02:55:37;;;;;;;4.88;1.92;;;16.70;45.10;;;;;;5007990;28;20416;-80
2023/05/23 02:58:04;;;;;;;5.15;2.10;;;16.70;45.20;;;;;;5007938;28;20440;-80
2023/05/23 03:00:32;;;;;;;3.53;1.80;;;16.60;45.00;;;;;;5005178;28;20032;-79
2023/05/23 03:02:59;;;;;;;4.07;1.88;;;16.60;45.20;;;;;;5020022;28;20046;-80
2023/05/23 03:05:25;;;;;;;3.35;1.90;;;16.60;45.20;;;;;;5007209;28;20504;-79
2023/05/23 03:07:53;;;;;;;5.38;2.67;;;16.50;45.20;;;;;;5006267;28;20433;-80
2023/05/23 03:10:25;;;;;;;4.07;1.60;;;16.50;45.30;;;;;;5004226;28;20050;-79
2023/05/23 03:12:55;;;;;;;4.80;1.55;;;16.40;45.20;;;;;;5005734;28;20030;-80
2023/05/23 03:15:24;;;;;;;3.95;1.60;;;16.40;45.30;;;;;;5003173;28;20040;-78
2023/05/23 03:17:51;;;;;;;7.53;2.67;;;16.30;45.20;;;;;;5007722;28;20519;-80
2023/05/23 03:20:17;;;;;;;8.18;2.88;;;16.30;45.30;;;;;;5002673;28;20122;-80
2023/05/23 03:22:52;;;;;;;4.00;1.65;;;16.20;45.20;;;;;;5004443;28;20056;-80
2023/05/23 03:25:19;;;;;;;4.70;2.00;;;16.20;45.30;;;;;;5004235;28;20611;-83
2023/05/23 03:27:51;;;;;;;3.13;1.70;;;16.10;45.30;;;;;;5004827;28;20077;-80
2023/05/23 03:30:17;;;;;;;3.63;1.90;;;16.10;45.40;;;;;;5005944;28;20042;-79
2023/05/23 03:32:44;;;;;;;4.50;1.88;;;16.00;45.40;;;;;;5004802;28;20053;-80
2023/05/23 03:35:11;;;;;;;3.35;1.83;;;16.00;45.50;;;;;;5001551;28;20032;-80
2023/05/23 03:37:41;;;;;;;4.63;2.15;;;15.90;45.40;;;;;;5005714;28;20489;-79
2023/05/23 03:40:08;;;;;;;3.20;1.65;;;15.90;45.50;;;;;;5005851;28;20091;-81
2023/05/23 03:42:38;;;;;;;4.65;2.28;;;15.90;45.60;;;;;;4988733;28;20503;-79
2023/05/23 03:45:05;;;;;;;5.88;2.33;;;15.80;45.50;;;;;;5001938;28;20453;-79
2023/05/23 03:47:41;;;;;;;3.60;1.70;;;15.80;45.60;;;;;;4990224;28;20085;-79
2023/05/23 03:50:08;;;;;;;5.72;2.25;;;15.70;45.50;;;;;;5006788;28;20620;-80
2023/05/23 03:52:56;;;;;;;3.72;1.70;;;15.70;45.60;;;;;;4984327;28;20689;-80
2023/05/23 03:55:24;;;;;;;4.15;1.90;;;15.70;45.60;;;;;;4998329;28;20073;-80
2023/05/23 03:57:51;;;;;;;4.25;2.03;;;15.60;45.50;;;;;;5006941;28;20048;-79
2023/05/23 04:00:18;;;;;;;5.35;1.98;;;15.60;45.60;;;;;;5004725;28;21186;-80
2023/05/23 04:02:45;;;;;;;4.15;1.85;;;15.60;46.30;;;;;;5001519;28;20045;-79
2023/05/23 04:05:14;;;;;;;5.00;2.63;;;15.50;45.60;;;;;;5005104;28;20038;-83
2023/05/23 04:07:41;;;;;;;5.65;2.58;;;15.50;45.70;;;;;;4997151;28;20441;-80
2023/05/23 04:10:09;;;;;;;4.25;2.20;;;15.50;46.30;;;;;;5002527;28;20030;-79
2023/05/23 04:12:36;;;;;;;6.28;2.10;;;15.40;45.60;;;;;;4998571;28;20425;-79
2023/05/23 04:15:08;;;;;;;3.92;1.42;;;15.40;45.70;;;;;;5004043;28;20718;-78
2023/05/23 04:17:42;;;;;;;8.20;3.00;;;15.40;45.80;;;;;;5005605;28;20153;-79
2023/05/23 04:20:09;;;;;;;5.13;2.30;;;15.30;45.60;;;;;;5004929;28;20425;-79
2023/05/23 04:22:36;;;;;;;6.18;1.80;;;15.30;46.30;;;;;;5000637;28;20056;-79
2023/05/23 04:25:05;;;;;;;4.55;2.30;;;15.30;45.80;;;;;;5004829;28;20481;-79
2023/05/23 04:27:34;;;;;;;4.72;2.53;;;15.30;45.90;;;;;;5003425;28;20561;-77
2023/05/23 04:30:01;;;;;;;3.13;1.90;;;15.30;45.90;;;;;;5002739;28;20458;-79
2023/05/23 04:32:27;;;;;;;6.03;2.30;;;15.30;46.00;;;;;;5005645;28;20060;-78
2023/05/23 04:34:56;;;;;;;2.90;1.90;;;15.20;45.80;;;;;;5005927;28;20040;-78
2023/05/23 04:37:24;;;;;;;6.85;3.00;;;15.20;45.90;;;;;;5004691;28;20125;-78
2023/05/23 04:39:52;;;;;;;5.65;2.75;;;15.20;45.90;;;;;;5004176;28;20197;-77
2023/05/23 04:42:51;;;;;;;6.05;2.80;;;15.20;46.00;;;;;;4993399;28;20058;-78
2023/05/23 04:45:28;;;;;;;7.07;2.53;;;15.20;46.00;;;;;;4999356;28;20366;-78
2023/05/23 04:47:59;;;;;;;6.13;2.53;;;15.20;46.00;;;;;;4997474;28;20514;-78
2023/05/23 04:50:39;;;;;;;4.60;2.15;;;15.20;46.00;;;;;;4999667;28;20038;-80
2023/05/23 04:53:05;;;;;;;5.93;2.50;;;15.30;46.20;;;;;;5010351;28;20068;-79
2023/05/23 04:55:32;;;;;;;5.13;2.17;;;15.30;46.20;;;;;;4999969;28;20562;-81
2023/05/23 04:58:14;;;;;;;6.70;2.58;;;15.30;46.20;;;;;;5000377;28;20180;-81
2023/05/23 05:00:41;;;;;;;5.75;2.30;;;15.40;46.30;;;;;;4996298;28;20635;-80
2023/05/23 05:03:11;;;;;;;6.43;2.15;;;15.40;46.30;;;;;;4998089;28;20057;-79
2023/05/23 05:05:43;;;;;;;6.80;2.40;;;15.30;46.10;;;;;;4994708;28;20041;-78
2023/05/23 05:08:13;;;;;;;6.82;2.25;;;15.40;46.30;;;;;;5000267;28;20100;-79
2023/05/23 05:10:40;;;;;;;4.88;2.42;;;15.50;46.50;;;;;;4998570;28;20033;-79
2023/05/23 05:13:07;;;;;;;6.45;2.40;;;15.50;46.50;;;;;;4995032;28;20246;-79
2023/05/23 05:15:42;;;;;;;4.85;2.00;;;15.50;46.50;;;;;;4999721;28;20480;-81
2023/05/23 05:18:38;;;;;;;5.10;2.40;;;15.50;46.50;;;;;;4980309;28;20073;-83
2023/05/23 05:21:05;;;;;;;6.50;2.13;;;15.50;46.40;;;;;;4998815;28;20312;-84
2023/05/23 05:23:32;;;;;;;5.97;2.22;;;15.60;46.60;;;;;;5000674;28;20046;-82
2023/05/23 05:25:59;;;;;;;5.53;2.40;;;15.60;46.60;;;;;;4997083;28;20058;-83
2023/05/23 05:28:32;;;;;;;7.45;2.42;;;15.60;46.60;;;;;;4997449;28;20154;-85
2023/05/23 05:30:59;;;;;;;7.88;2.70;;;15.70;46.80;;;;;;4998132;28;20029;-83
2023/05/23 05:33:27;;;;;;;6.13;2.78;;;15.70;46.80;;;;;;4991425;28;20033;-85
2023/05/23 05:36:07;;;;;;;6.70;2.75;;;15.80;46.80;;;;;;4993574;28;20041;-77
2023/05/23 05:38:33;;;;;;;7.38;2.75;;;16.00;47.10;;;;;;4992592;28;20168;-79
2023/05/23 05:40:59;;;;;;;5.55;2.25;;;16.10;47.20;;;;;;4994789;28;20407;-85
2023/05/23 05:43:32;;;;;;;9.45;2.83;;;16.20;47.50;;;;;;4991285;28;20045;-81
2023/05/23 05:45:58;;;;;;;9.68;3.42;;;16.30;47.60;;;;;;4993487;28;20411;-82
2023/05/23 05:48:24;;;;;;;9.23;3.83;;;16.50;47.80;;;;;;4975498;28;20050;-83
2023/05/23 05:50:53;;;;;;;10.32;2.97;;;16.60;47.80;;;;;;5010525;28;20404;-85
2023/05/23 05:53:19;;;;;;;9.95;4.00;;;16.70;47.90;;;;;;5004731;28;20038;-85
2023/05/23 05:55:48;;;;;;;8.82;3.40;;;16.80;48.20;;;;;;4997176;28;20481;-82
2023/05/23 05:58:15;;;;;;;9.52;3.70;;;16.90;48.50;;;;;;4991655;28;20530;-81
2023/05/23 06:00:55;;;;;;;9.18;4.13;;;17.10;48.60;;;;;;4989263;28;20030;-83
2023/05/23 06:03:23;;;;;;;8.45;3.00;;;17.30;48.70;;;;;;4993154;28;20133;-78
2023/05/23 06:05:52;;;;;;;6.88;3.28;;;17.40;48.60;;;;;;4994940;28;20514;-78
2023/05/23 06:08:31;;;;;;;10.93;3.60;;;17.50;48.40;;;;;;4996244;28;20030;-79
2023/05/23 06:10:57;;;;;;;9.48;3.63;;;17.70;48.40;;;;;;4996064;28;20050;-90
2023/05/23 06:13:25;;;;;;;16.30;4.25;;;17.70;48.10;;;;;;4994208;28;20048;-86
2023/05/23 06:16:14;;;;;;;8.85;3.50;;;17.80;48.20;;;;;;4982366;28;20065;-81
2023/05/23 06:18:44;;;;;;;13.77;3.92;;;18.00;48.30;;;;;;4999334;28;20029;-80
2023/05/23 06:21:10;;;;;;;11.07;4.78;;;18.10;48.20;;;;;;4996862;28;20033;-81
2023/05/23 06:23:36;;;;;;;8.95;3.10;;;18.20;48.20;;;;;;4998163;28;20033;-86
2023/05/23 06:26:09;;;;;;;7.22;2.92;;;18.40;48.50;;;;;;4985345;28;20500;-82
2023/05/23 06:28:41;;;;;;;8.25;3.60;;;18.80;49.10;;;;;;4996035;28;20484;-81
2023/05/23 06:31:10;;;;;;;7.63;3.80;;;19.00;49.00;;;;;;4998508;28;20501;-81
2023/05/23 06:33:39;;;;;;;12.20;4.63;;;19.30;49.20;;;;;;4993369;28;20545;-81
2023/05/23 06:36:05;;;;;;;5.95;3.38;;;19.50;49.20;;;;;;4995243;28;20037;-80
2023/05/23 06:38:34;;;;;;;7.88;3.80;;;19.60;49.20;;;;;;4999609;28;20079;-81
2023/05/23 06:41:05;;;;;;;8.40;3.45;;;19.80;50.00;;;;;;4996239;28;20030;-80
2023/05/23 06:43:32;;;;;;;10.00;3.63;;;19.90;49.40;;;;;;4994222;28;20117;-80
2023/05/23 06:46:21;;;;;;;7.55;3.03;;;20.10;50.00;;;;;;5016535;28;20046;-81
2023/05/23 06:48:47;;;;;;;7.30;3.22;;;20.20;49.20;;;;;;5000310;28;20061;-81
2023/05/23 06:51:16;;;;;;;5.90;3.17;;;20.30;49.20;;;;;;5000966;28;20048;-81
2023/05/23 06:53:43;;;;;;;8.63;4.20;;;20.40;49.30;;;;;;4999870;28;20034;-81
2023/05/23 06:56:16;;;;;;;8.52;4.03;;;20.50;49.30;;;;;;5001589;28;20569;-80
2023/05/23 06:58:54;;;;;;;8.48;3.45;;;20.60;49.20;;;;;;4996922;28;20054;-79
2023/05/23 07:01:23;;;;;;;10.60;3.60;;;20.80;49.70;;;;;;4997108;28;20148;-80
2023/05/23 07:03:50;;;;;;;8.23;3.58;;;21.00;49.50;;;;;;5014112;28;20426;-83
2023/05/23 07:06:17;;;;;;;6.50;2.80;;;21.10;49.40;;;;;;5001861;28;20163;-82
2023/05/23 07:08:50;;;;;;;5.97;2.55;;;21.20;49.40;;;;;;5000543;28;20041;-82
2023/05/23 07:11:22;;;;;;;7.72;2.70;;;21.40;49.90;;;;;;5000285;28;20135;-83
2023/05/23 07:13:54;;;;;;;6.50;2.88;;;21.60;50.10;;;;;;5008269;28;20045;-80
2023/05/23 07:16:36;;;;;;;5.82;3.25;;;21.90;50.40;;;;;;5015147;28;20007;-81
2023/05/23 07:19:05;;;;;;;6.82;3.03;;;22.10;50.40;;;;;;5015520;28;20045;-81
2023/05/23 07:21:38;;;;;;;5.65;2.80;;;22.20;50.30;;;;;;5009607;28;20524;-81
2023/05/23 07:24:06;;;;;;;5.90;2.60;;;22.30;50.30;;;;;;5005398;28;20465;-80
2023/05/23 07:26:33;;;;;;;4.50;2.25;;;22.40;50.40;;;;;;5008260;28;20041;-80
2023/05/23 07:28:59;;;;;;;7.30;3.25;;;22.40;50.30;;;;;;4996355;28;20049;-81
2023/05/23 07:31:26;;;;;;;3.60;2.28;;;22.50;50.40;;;;;;5007774;28;20051;-81
2023/05/23 07:33:55;;;;;;;4.88;2.33;;;22.50;50.30;;;;;;4995238;28;20038;-81
2023/05/23 07:36:32;;;;;;;4.68;2.55;;;22.50;50.20;;;;;;4999052;28;20462;-81
2023/05/23 07:38:59;;;;;;;4.78;2.70;;;22.60;50.30;;;;;;4997586;28;20438;-80
2023/05/23 07:41:35;;;;;;;5.70;3.05;;;22.70;50.40;;;;;;4997288;28;20129;-79
2023/05/23 07:44:01;;;;;;;6.95;3.55;;;22.70;50.10;;;;;;4997513;28;20116;-80
2023/05/23 07:46:27;;;;;;;7.18;2.67;;;22.90;50.20;;;;;;4998679;28;20053;-82
2023/05/23 07:48:54;;;;;;;7.65;3.63;;;23.00;50.20;;;;;;5000547;28;20164;-84
2023/05/23 07:51:40;;;;;;;6.10;2.88;;;23.00;50.00;;;;;;4954160;28;20840;-85
2023/05/23 07:54:07;;;;;;;8.52;2.90;;;23.10;49.90;;;;;;4977405;28;20045;-81
2023/05/23 07:56:33;;;;;;;5.47;3.10;;;23.20;49.80;;;;;;4997533;28;20057;-83
2023/05/23 07:58:59;;;;;;;6.68;3.08;;;23.20;49.70;;;;;;4997500;28;20030;-84
2023/05/23 08:01:27;;;;;;;6.43;3.42;;;23.20;49.50;;;;;;4979665;28;20121;-83
2023/05/23 08:03:53;;;;;;;6.15;3.05;;;23.20;49.30;;;;;;5001510;28;20038;-81
2023/05/23 08:06:26;;;;;;;5.90;2.85;;;23.20;49.10;;;;;;4997358;28;20033;-81
2023/05/23 08:08:53;;;;;;;8.60;3.35;;;23.20;48.90;;;;;;4992118;28;20045;-82
2023/05/23 08:11:20;;;;;;;6.13;3.30;;;23.20;48.70;;;;;;5004710;28;20485;-82
2023/05/23 08:13:50;;;;;;;6.88;3.65;;;23.20;48.50;;;;;;4995639;28;20141;-82
2023/05/23 08:16:36;;;;;;;4.72;3.03;;;23.30;48.60;;;;;;4993048;28;20492;-81
2023/05/23 08:19:04;;;;;;;9.02;3.63;;;23.20;48.30;;;;;;4996377;28;20046;-82
2023/05/23 08:21:35;;;;;;;7.45;3.20;;;23.20;48.20;;;;;;4991142;28;20038;-82
2023/05/23 08:24:01;;;;;;;7.70;3.00;;;23.20;48.10;;;;;;4993468;28;20065;-83
2023/05/23 08:26:33;;;;;;;7.05;3.40;;;23.20;48.00;;;;;;4997753;28;20509;-82
2023/05/23 08:29:02;;;;;;;7.95;3.88;;;23.20;47.90;;;;;;4997135;28;20108;-83
2023/05/23 08:31:40;;;;;;;5.03;3.15;;;23.20;47.80;;;;;;4990948;28;20049;-81
2023/05/23 08:34:08;;;;;;;6.93;3.83;;;23.10;47.60;;;;;;4981012;28;20439;-81
2023/05/23 08:36:41;;;;;;;6.50;3.88;;;23.10;47.60;;;;;;5009291;28;20150;-85
2023/05/23 08:39:15;;;;;;;10.07;5.07;;;23.00;47.30;;;;;;4999921;28;20080;-81
2023/05/23 08:42:00;;;;;;;6.18;3.20;;;23.00;47.30;;;;;;4994778;28;20049;-78
2023/05/23 08:44:26;;;;;;;11.07;4.78;;;23.00;47.20;;;;;;4997132;28;20056;-77
2023/05/23 08:47:04;;;;;;;6.90;4.00;;;23.00;47.00;;;;;;4999401;28;20145;-82
2023/05/23 08:49:53;;;;;;;7.05;4.10;;;22.90;46.80;;;;;;4993041;28;20049;-82
2023/05/23 08:52:22;;;;;;;9.43;3.75;;;22.90;47.00;;;;;;4998186;28;20040;-81
2023/05/23 08:54:52;;;;;;;6.55;3.25;;;22.90;46.90;;;;;;4996930;28;20022;-82
2023/05/23 08:57:18;;;;;;;10.48;3.63;;;23.00;46.90;;;;;;4998089;28;20124;-80
2023/05/23 08:59:51;;;;;;;10.85;3.85;;;23.10;46.80;;;;;;4993073;28;20109;-80
2023/05/23 09:02:19;;;;;;;7.93;3.72;;;23.30;46.80;;;;;;4994616;28;20081;-82
2023/05/23 09:04:47;;;;;;;7.20;3.90;;;23.50;47.00;;;;;;4996194;28;20034;-82
2023/05/23 09:07:18;;;;;;;7.50;3.67;;;23.50;46.60;;;;;;4993610;28;20685;-83
2023/05/23 09:09:48;;;;;;;11.45;5.03;;;23.60;46.40;;;;;;4997784;28;20045;-84
2023/05/23 09:12:15;;;;;;;11.25;4.72;;;23.80;46.40;;;;;;4993250;28;20429;-84
2023/05/23 09:14:44;;;;;;;9.27;4.90;;;23.70;46.00;;;;;;4996382;28;20029;-84
2023/05/23 09:17:20;;;;;;;7.65;3.90;;;23.50;45.40;;;;;;4983512;28;20054;-79
2023/05/23 09:19:50;;;;;;;7.88;3.72;;;23.40;45.20;;;;;;4991786;28;20065;-82
2023/05/23 09:22:36;;;;;;;8.48;4.50;;;23.30;45.00;;;;;;4983039;28;20049;-83
2023/05/23 09:25:15;;;;;;;10.95;4.25;;;23.20;44.90;;;;;;4974747;28;20041;-81
2023/05/23 09:27:52;;;;;;;11.68;4.70;;;23.10;44.60;;;;;;4990758;28;20548;-81
2023/05/23 09:30:22;;;;;;;8.20;3.92;;;23.00;44.30;;;;;;4982856;28;20042;-82
2023/05/23 09:32:59;;;;;;;7.30;3.72;;;23.10;44.60;;;;;;4993372;28;20084;-81
2023/05/23 09:35:45;;;;;;;6.78;3.92;;;23.20;44.70;;;;;;4988308;28;20061;-81
2023/05/23 09:38:38;;;;;;;8.70;4.18;;;23.40;44.80;;;;;;4964028;28;20448;-81
2023/05/23 09:41:10;;;;;;;10.07;4.13;;;23.70;44.90;;;;;;4989378;28;20091;-81
2023/05/23 09:43:39;;;;;;;9.13;3.65;;;24.00;45.00;;;;;;4988950;28;20064;-82
2023/05/23 09:46:10;;;;;;;6.93;3.97;;;24.30;45.20;;;;;;4998078;28;20057;-82
2023/05/23 09:48:37;;;;;;;6.20;3.03;;;24.50;45.00;;;;;;4997966;28;20041;-83
2023/05/23 09:51:08;;;;;;;7.40;3.35;;;24.80;45.20;;;;;;4991625;28;20065;-82
2023/05/23 09:53:36;;;;;;;7.25;4.18;;;25.00;45.10;;;;;;4993415;28;20295;-82
2023/05/23 09:56:23;;;;;;;6.20;3.30;;;25.10;44.80;;;;;;4927635;28;20057;-78
2023/05/23 09:58:50;;;;;;;5.25;3.25;;;25.20;44.60;;;;;;4987003;28;20393;-79
2023/05/23 10:01:16;;;;;;;7.35;3.60;;;25.30;44.40;;;;;;4996021;28;20117;-80
2023/05/23 10:03:50;;;;;;;5.53;3.25;;;25.50;44.30;;;;;;4997435;28;20069;-81
2023/05/23 10:06:24;;;;;;;6.68;4.03;;;25.70;44.10;;;;;;5001947;28;20552;-80
2023/05/23 10:09:03;;;;;;;3.97;2.53;;;26.00;44.00;;;;;;4999424;28;20935;-82
2023/05/23 10:11:34;;;;;;;6.47;2.65;;;26.30;43.60;;;;;;5001550;28;20547;-82
2023/05/23 10:14:09;;;;;;;7.15;3.65;;;26.60;43.40;;;;;;4996574;28;20068;-81
2023/05/23 10:16:46;;;;;;;5.87;3.00;;;26.90;43.00;;;;;;5001383;28;20042;-82
2023/05/23 10:19:58;;;;;;;4.32;3.08;;;27.20;42.80;;;;;;4998694;28;20361;-82
2023/05/23 10:22:25;;;;;;;5.80;4.03;;;27.40;42.40;;;;;;4985217;28;20068;-83
2023/05/23 10:24:52;;;;;;;5.15;2.85;;;27.60;42.40;;;;;;4999874;28;20564;-83
2023/05/23 10:27:18;;;;;;;5.30;3.13;;;27.80;42.20;;;;;;4997002;28;20526;-83
2023/05/23 10:29:48;;;;;;;6.13;3.38;;;28.00;41.90;;;;;;4999975;28;20201;-80
2023/05/23 10:32:15;;;;;;;5.05;2.95;;;28.30;41.70;;;;;;4994702;28;20231;-81
2023/05/23 10:35:03;;;;;;;5.80;3.28;;;28.50;41.40;;;;;;4991270;28;20073;-81
2023/05/23 10:37:41;;;;;;;4.00;2.88;;;28.80;41.00;;;;;;5001002;28;20057;-81
2023/05/23 10:40:23;;;;;;;4.00;2.80;;;29.00;41.00;;;;;;4997876;28;20038;-82
2023/05/23 10:42:58;;;;;;;3.95;2.85;;;29.10;40.70;;;;;;4997105;28;20137;-81
2023/05/23 10:45:25;;;;;;;5.55;3.42;;;29.30;40.60;;;;;;4997214;28;20393;-81
2023/05/23 10:47:52;;;;;;;5.95;3.25;;;29.50;40.60;;;;;;4993534;28;20050;-80
2023/05/23 10:50:34;;;;;;;11.27;5.45;;;29.50;40.50;;;;;;4999781;28;20083;-80
2023/05/23 10:53:01;;;;;;;9.93;4.93;;;29.50;39.80;;;;;;5000490;28;20262;-84
2023/05/23 10:55:32;;;;;;;8.73;5.10;;;29.10;39.80;;;;;;4999749;28;20148;-89
2023/05/23 10:58:14;;;;;;;10.63;5.78;;;28.70;39.70;;;;;;4999861;28;20118;-83
2023/05/23 11:00:52;;;;;;;10.95;6.07;;;28.20;39.70;;;;;;4998110;28;20030;-84
2023/05/23 11:03:18;;;;;;;11.05;5.55;;;27.70;40.00;;;;;;4995520;28;20038;-86
2023/05/23 11:05:52;;;;;;;7.68;4.88;;;27.30;40.40;;;;;;5000297;28;20200;-82
2023/05/23 11:08:23;;;;;;;8.43;5.32;;;26.90;40.50;;;;;;4995824;28;20084;-79
2023/05/23 11:10:52;;;;;;;10.13;5.85;;;26.60;40.80;;;;;;4988266;28;20057;-79
2023/05/23 11:13:23;;;;;;;9.25;5.30;;;26.40;40.90;;;;;;4997176;28;20374;-81
2023/05/23 11:15:49;;;;;;;7.93;5.15;;;26.20;41.00;;;;;;4996030;28;20092;-79
2023/05/23 11:18:23;;;;;;;8.45;4.00;;;26.00;41.10;;;;;;4999964;28;20468;-80
2023/05/23 11:20:53;;;;;;;8.35;4.18;;;25.90;41.20;;;;;;4996432;28;20034;-81
2023/05/23 11:23:20;;;;;;;9.90;4.57;;;25.70;41.20;;;;;;4997698;28;20074;-82
2023/05/23 11:25:52;;;;;;;6.45;3.78;;;25.70;41.20;;;;;;4982613;28;20061;-78
2023/05/23 11:28:20;;;;;;;6.53;4.20;;;25.70;41.10;;;;;;4995717;28;20026;-83
2023/05/23 11:30:52;;;;;;;7.82;3.67;;;25.60;41.00;;;;;;4987901;28;20034;-86
2023/05/23 11:33:19;;;;;;;5.93;4.35;;;25.60;40.90;;;;;;4998819;28;20034;-86
2023/05/23 11:35:47;;;;;;;7.95;4.05;;;25.70;40.90;;;;;;4991207;28;20502;-83
2023/05/23 11:38:15;;;;;;;5.43;2.80;;;25.80;40.80;;;;;;4999082;28;20504;-83
2023/05/23 11:40:43;;;;;;;5.53;3.13;;;25.90;40.50;;;;;;4999394;28;20312;-83
2023/05/23 11:43:15;;;;;;;5.05;3.03;;;26.10;40.20;;;;;;4993100;28;20050;-81
2023/05/23 11:45:47;;;;;;;7.40;3.67;;;26.30;39.90;;;;;;4999290;28;20840;-82
2023/05/23 11:48:16;;;;;;;4.78;2.72;;;26.50;39.70;;;;;;5000093;28;20057;-82
2023/05/23 11:50:53;;;;;;;5.85;2.53;;;26.60;39.60;;;;;;4993832;28;20041;-82
2023/05/23 11:53:21;;;;;;;6.18;2.97;;;26.60;39.00;;;;;;4997947;28;20696;-82
2023/05/23 11:55:58;;;;;;;5.55;2.78;;;26.70;38.90;;;;;;4999489;28;20523;-81
2023/05/23 11:58:36;;;;;;;2.92;2.50;;;26.80;38.70;;;;;;4997467;28;20105;-83
2023/05/23 12:01:07;;;;;;;4.00;2.53;;;26.80;38.60;;;;;;4992360;28;20225;-81
2023/05/23 12:03:50;;;;;;;3.03;2.50;;;26.80;38.40;;;;;;4992396;28;20923;-82
2023/05/23 12:06:23;;;;;;;4.35;2.85;;;26.90;38.10;;;;;;4999164;28;20536;-81
2023/05/23 12:08:53;;;;;;;2.70;2.35;;;27.00;38.10;;;;;;4994194;28;20514;-81
2023/05/23 12:11:25;;;;;;;4.50;2.53;;;27.00;37.90;;;;;;4997127;28;20041;-83
2023/05/23 12:13:52;;;;;;;5.28;2.67;;;27.00;37.80;;;;;;4995817;28;20572;-81
2023/05/23 12:16:19;;;;;;;4.68;2.33;;;27.00;37.60;;;;;;4998751;28;20544;-82
2023/05/23 12:18:46;;;;;;;4.28;2.25;;;27.00;37.50;;;;;;4998053;28;20037;-81
2023/05/23 12:21:14;;;;;;;5.85;2.83;;;27.00;37.50;;;;;;5010666;28;20452;-80
2023/05/23 12:23:41;;;;;;;6.07;1.80;;;27.10;37.50;;;;;;4998368;28;20084;-78
2023/05/23 12:26:08;;;;;;;3.17;1.88;;;27.10;37.40;;;;;;4990602;28;20045;-81
2023/05/23 12:28:44;;;;;;;5.05;3.10;;;27.20;37.30;;;;;;4995912;28;20040;-81
2023/05/23 12:31:11;;;;;;;5.78;2.67;;;27.10;37.10;;;;;;4996797;28;20049;-81
2023/05/23 12:33:42;;;;;;;5.20;2.05;;;27.10;37.20;;;;;;5010570;28;20725;-81
2023/05/23 12:36:11;;;;;;;3.40;2.50;;;27.00;37.20;;;;;;4994512;28;20034;-81
2023/05/23 12:38:37;;;;;;;7.10;2.95;;;27.00;37.20;;;;;;4995804;28;20037;-79
2023/05/23 12:41:08;;;;;;;5.53;3.03;;;27.00;37.20;;;;;;4993498;28;20042;-80
2023/05/23 12:43:48;;;;;;;3.53;2.83;;;27.00;37.20;;;;;;4980170;28;20045;-81
2023/05/23 12:46:14;;;;;;;6.90;3.78;;;27.00;37.20;;;;;;4997892;28;20060;-82
2023/05/23 12:48:40;;;;;;;3.70;2.38;;;27.10;37.20;;;;;;4998014;28;20041;-81
2023/05/23 12:51:06;;;;;;;5.32;3.10;;;27.30;37.10;;;;;;4995632;28;20034;-80
2023/05/23 12:53:32;;;;;;;3.67;2.25;;;27.30;37.00;;;;;;4994471;28;20090;-78
2023/05/23 12:55:59;;;;;;;3.88;2.13;;;27.30;36.90;;;;;;4993663;28;20129;-83
2023/05/23 12:58:25;;;;;;;3.22;2.42;;;27.40;36.90;;;;;;4993925;28;20038;-85
2023/05/23 13:00:54;;;;;;;4.55;2.50;;;27.50;36.90;;;;;;4992424;28;20694;-82
2023/05/23 13:03:20;;;;;;;5.28;2.30;;;27.40;36.80;;;;;;4993721;28;20107;-80
2023/05/23 13:05:47;;;;;;;5.72;3.03;;;27.40;36.90;;;;;;4991486;28;20872;-81